Terminal Aerodrome Forecast
Issued by NWS

Home | Current Version | Previous Version | Text Only | Print | Product List | Glossary On
Versions: 1 2 3 4 5 6 7 8 9 10 11 12 13
972
FTUS42 KTBW 201728
TAFRSW
TAF
KRSW 201728Z 2018/2118 07012G20KT P6SM SCT040 SCT250
     FM210200 05007KT P6SM FEW250
     FM211500 08012G18KT P6SM SCT250=

USA.gov is the U.S. government's official web portal to all federal, state and local government web resources and services.